This is the latest recevied weather packets stored in our database for station/object N0HOT. If no packets are shown the sender has not sent any weather packets the latest 10 day(s).
| Time | Temp. | Humidity | Pressure | Rain* | Wind** | Luminosity | Snow |
|---|---|---|---|---|---|---|---|
| 1778007296 | 12.22° C | 27% | 1010.8 hPa | 0 mm | - | 345 W/m² | - |
| 1778006992 | 12.22° C | 27% | 1010.5 hPa | 0 mm | - | 231 W/m² | - |
| 1778006689 | 11.67° C | 26% | 1010.8 hPa | 0 mm | - | 274 W/m² | - |
| 1778006385 | 11.67° C | 26% | 1010.8 hPa | 0 mm | - | 289 W/m² | - |
| 1778006083 | 11.67° C | 25% | 1010.8 hPa | 0 mm | - | 481 W/m² | - |
| 1778005779 | 11.67° C | 30% | 1010.8 hPa | 0 mm | - | 1043 W/m² | - |
| 1778005476 | 11.67° C | 28% | 1010.5 hPa | 0 mm | - | 278 W/m² | - |
| 1778005172 | 11.67° C | 28% | 1010.5 hPa | 0 mm | - | 214 W/m² | - |
| 1778004870 | 11.67° C | 29% | 1010.8 hPa | 0 mm | - | 269 W/m² | - |
| 1778004567 | 11.67° C | 29% | 1010.8 hPa | 0 mm | - | 246 W/m² | - |
| 1778004263 | 11.67° C | 28% | 1010.5 hPa | 0 mm | - | 285 W/m² | - |
| 1778003960 | 11.67° C | 29% | 1010.8 hPa | 0 mm | - | 452 W/m² | - |
| 1778003656 | 11.67° C | 27% | 1010.8 hPa | 0 mm | - | 270 W/m² | - |
| 1778003353 | 11.67° C | 28% | 1010.5 hPa | 0 mm | - | 924 W/m² | - |
| 1778003050 | 11.67° C | 27% | 1010.8 hPa | 0 mm | - | 241 W/m² | - |
| 1778002746 | 11.67° C | 28% | 1010.5 hPa | 0 mm | - | 254 W/m² | - |
| 1778002443 | 11.67° C | 28% | 1010.8 hPa | 0 mm | - | 303 W/m² | - |
| 1778002140 | 11.67° C | 27% | 1010.8 hPa | 0 mm | - | 253 W/m² | - |
| 1778001838 | 11.67° C | 26% | 1010.5 hPa | 0 mm | - | 234 W/m² | - |
| 1778001537 | 11.67° C | 27% | 1010.8 hPa | 0 mm | - | 344 W/m² | - |
| 1778001234 | 11.67° C | 28% | 1010.8 hPa | 0 mm | - | 483 W/m² | - |
| 1778000931 | 11.67° C | 26% | 1010.8 hPa | 0 mm | - | 418 W/m² | - |
| 1778000628 | 11.67° C | 28% | 1010.5 hPa | 0 mm | - | 657 W/m² | - |
| 1778000323 | 11.67° C | 28% | 1010.8 hPa | 0 mm | - | 526 W/m² | - |
| 1778000019 | 12.22° C | 28% | 1010.8 hPa | 0 mm | - | 457 W/m² | - |
* Rain latest hour (hover to see other rain measurements)
** Current wind speed in m/s (hover to see current wind gust speed)